Rehoboth Beach, DE (19971)

6:14 PM EST on December 25, 2014 (GMT -0500)
Funland and the Boardwalk | Change Station
CLOSE
Current Station
Personal Weather Station
Location: Rehoboth Beach, DE
Elevation: 33 ft
Nearby Weather Stations

Elev 33 ft 38.71 °N, 75.08 °W | Updated 3 days ago

Clear
Clear
46 °F
Feels Like 46 °F
N
16
Wind Variable Wind from WNW
Gusts 22 mph

Today
High -- | Low -- °F
--% Chance of Precip.
Yesterday
High -- | Low -- °F
Precip. -- in
7:16 AM 4:44 PM
Waxing Crescent, 20% visible
Pressure 30.09 in
Visibility 10.0 miles
Clouds Clear
Dew Point 30 °F
Humidity 54%
Rainfall 0.00 in
Snow Depth Not available.
UV 0.0 out of 12
Pollen .10 out of 12
Air Quality Not available.
Flu Activity Not available.
METAR KGED 252254Z AUTO 00000KT 10SM CLR 09/00 A3009 RMK AO2 SLP190 T00890000 $

More Conditions Fewer Conditions

Pressure 30.09 in
Visibility 10.0 miles
Clouds Clear
Dew Point 30 °F
Humidity 54%
Rainfall 0.00 in
Snow Depth Not available.
UV 0.0 out of 12
Pollen .10 out of 12
Air Quality Not available.
Flu Activity Not available.
METAR KGED 252254Z AUTO 00000KT 10SM CLR 09/00 A3009 RMK AO2 SLP190 T00890000 $

More Conditions Fewer Conditions

10-Day Weather Forecast

Almanac

Astronomy

Dec. 25, 2014 Rise Set
Actual Time
Civil Twilight
Nautical Twilight
Astronomical Twilight
Moon
Length of Visible Light
Length of Day
Tomorrow will be .
, % of the Moon is Illuminated

Today's Extremes

State Highs State Lows

Community

WunderPhotos

Upload Photos

1,780,440 photos uploaded!

WunderBlogs® & News

Nearby

Air Quality

  Air Quality AQ Index Pollutant
Not available.

Snow Depth

Station Depth Elevation

Earthquake Activity

City Distance Mag. Time & Date
Minimum magnitude displayed is 2.5.

Coastal Water Temperatures

Place Temperature

Nearby Weather Stations